Time;durP1;ratioP1;P1;durP2;ratioP2;P2;SDS_P1;SDS_P2;PMS_P1;PMS_P2;Temp;Humidity;BMP_temperature;BMP_pressure;BME280_temperature;BME280_humidity;BME280_pressure;Samples;Min_cycle;Max_cycle;Signal;HPM_P1;HPM_P2
2023/04/13 00:00:28;;;;;;;2.80;1.13;;;;;;;5.79;94.60;99377.63;4960544;28;20031;-96
2023/04/13 00:02:54;;;;;;;3.85;1.10;;;;;;;5.79;95.17;99376.75;4959885;28;20042;-95
2023/04/13 00:05:21;;;;;;;3.90;1.20;;;;;;;5.76;95.39;99369.81;4959893;28;20026;-96
2023/04/13 00:07:47;;;;;;;4.97;1.88;;;;;;;5.76;96.02;99369.81;4961162;28;20026;-96
2023/04/13 00:10:14;;;;;;;3.90;1.23;;;;;;;5.78;96.11;99375.00;4960364;28;20050;-96
2023/04/13 00:12:41;;;;;;;4.00;1.33;;;;;;;5.78;96.13;99367.25;4960174;28;20476;-95
2023/04/13 00:15:08;;;;;;;5.93;1.48;;;;;;;5.79;96.44;99361.25;4959672;28;20054;-95
2023/04/13 00:17:34;;;;;;;4.55;1.30;;;;;;;5.81;95.88;99367.31;4961431;28;20066;-96
2023/04/13 00:20:00;;;;;;;3.55;1.30;;;;;;;5.83;96.27;99370.81;4965795;28;20057;-95
2023/04/13 00:22:29;;;;;;;4.07;1.35;;;;;;;5.87;95.95;99375.22;4963142;28;20391;-94
2023/04/13 00:24:54;;;;;;;3.72;1.10;;;;;;;5.91;96.27;99354.59;4963435;28;20101;-95
2023/04/13 00:27:21;;;;;;;3.75;1.20;;;;;;;5.97;95.97;99366.81;4965562;28;20511;-96
2023/04/13 00:29:47;;;;;;;4.20;1.30;;;;;;;6.01;95.42;99362.56;4963771;28;20057;-95
2023/04/13 00:32:13;;;;;;;3.95;1.00;;;;;;;6.03;95.67;99361.75;4964038;28;20030;-96
2023/04/13 00:34:38;;;;;;;4.22;0.90;;;;;;;6.07;96.42;99363.53;4963604;28;20041;-96
2023/04/13 00:37:05;;;;;;;5.00;1.00;;;;;;;6.09;96.52;99363.56;4963080;28;20034;-95
2023/04/13 00:39:31;;;;;;;4.22;1.30;;;;;;;6.11;97.15;99368.75;4963449;28;20037;-96
2023/04/13 00:42:00;;;;;;;4.70;1.45;;;;;;;6.14;96.99;99371.41;4966407;28;20030;-96
2023/04/13 00:44:27;;;;;;;;;;;;;;;6.18;96.17;99370.63;4965756;28;20030;-95
2023/04/13 00:46:54;;;;;;;3.42;1.00;;;;;;;6.11;97.68;99372.22;4965006;28;20314;-94
2023/04/13 00:49:21;;;;;;;4.80;1.02;;;;;;;6.07;98.35;99368.72;4962630;28;20131;-96
2023/04/13 00:51:46;;;;;;;3.15;0.88;;;;;;;6.08;98.80;99379.91;4964203;28;20477;-95
2023/04/13 00:54:13;;;;;;;4.68;1.27;;;;;;;6.08;98.60;99372.16;4964810;28;20029;-96
2023/04/13 00:56:41;;;;;;;3.60;1.20;;;;;;;6.06;99.45;99363.50;4963349;28;20078;-96
2023/04/13 00:59:08;;;;;;;3.17;1.10;;;;;;;6.09;98.78;99368.75;4963836;28;20026;-96
2023/04/13 01:01:34;;;;;;;4.05;1.20;;;;;;;6.07;98.75;99366.13;4962490;28;20444;-96
2023/04/13 01:03:59;;;;;;;4.00;1.00;;;;;;;6.08;98.46;99354.94;4961920;28;20108;-96
2023/04/13 01:06:33;;;;;;;4.53;1.02;;;;;;;6.11;98.84;99366.19;4964328;28;20027;-95
2023/04/13 01:09:14;;;;;;;3.80;1.00;;;;;;;6.14;99.01;99358.47;4963685;28;20069;-96
2023/04/13 01:11:48;;;;;;;2.65;0.85;;;;;;;6.14;99.31;99363.63;4964189;28;20080;-96
2023/04/13 01:14:36;;;;;;;3.10;0.90;;;;;;;6.13;98.86;99352.44;4963154;28;20443;-95
2023/04/13 01:17:09;;;;;;;4.97;1.20;;;;;;;6.13;99.34;99364.50;4963989;28;20033;-96
2023/04/13 01:19:51;;;;;;;4.13;1.10;;;;;;;6.15;99.13;99360.22;4962344;28;20031;-95
2023/04/13 01:22:24;;;;;;;4.30;1.02;;;;;;;6.17;99.40;99361.09;4961074;28;20432;-96
2023/04/13 01:25:27;;;;;;;3.85;1.20;;;;;;;6.16;99.99;99365.41;4962215;28;20030;-96
2023/04/13 01:28:01;;;;;;;3.78;0.90;;;;;;;6.18;99.58;99365.44;4963512;28;20035;-96
2023/04/13 01:30:30;;;;;;;4.70;1.08;;;;;;;6.19;99.18;99359.44;4963357;28;20037;-95
2023/04/13 01:32:57;;;;;;;3.13;1.17;;;;;;;6.19;99.61;99357.72;4963928;28;20085;-95
2023/04/13 01:35:24;;;;;;;4.85;1.23;;;;;;;6.24;99.17;99379.34;4962583;28;20026;-95
2023/04/13 01:37:50;;;;;;;4.55;0.98;;;;;;;6.23;98.80;99369.00;4963341;28;20165;-96
2023/04/13 01:40:16;;;;;;;2.33;0.80;;;;;;;6.26;99.10;99387.16;4962693;28;20365;-96
2023/04/13 01:42:42;;;;;;;4.88;1.20;;;;;;;6.26;99.47;99382.84;4960998;28;20141;-96
2023/04/13 01:45:28;;;;;;;3.72;1.40;;;;;;;6.30;99.70;99391.53;4962574;28;20500;-95
2023/04/13 01:48:08;;;;;;;4.65;1.13;;;;;;;6.28;100.00;99398.38;4961671;28;20567;-94
2023/04/13 01:50:39;;;;;;;4.45;1.13;;;;;;;6.26;100.00;99397.50;4962469;28;20404;-95
2023/04/13 01:53:15;;;;;;;5.05;0.90;;;;;;;6.29;100.00;99409.63;4959932;28;20027;-95
2023/04/13 01:55:42;;;;;;;3.95;1.17;;;;;;;6.26;100.00;99398.34;4975769;28;20060;-95
2023/04/13 01:58:10;;;;;;;3.15;0.90;;;;;;;6.24;100.00;99402.63;4977863;28;20110;-95
2023/04/13 02:00:36;;;;;;;3.47;1.10;;;;;;;6.22;100.00;99406.03;4961208;28;20512;-95
2023/04/13 02:03:06;;;;;;;4.97;1.08;;;;;;;6.23;100.00;99415.53;4961400;28;20121;-95
2023/04/13 02:05:33;;;;;;;3.40;0.88;;;;;;;6.22;100.00;99419.81;4962164;28;20025;-95
2023/04/13 02:07:59;;;;;;;6.05;1.42;;;;;;;6.22;100.00;99424.13;4976018;28;20076;-94
2023/04/13 02:10:25;;;;;;;6.63;1.67;;;;;;;6.20;100.00;99423.22;4977241;28;20018;-94
2023/04/13 02:12:53;;;;;;;7.18;1.33;;;;;;;6.18;100.00;99428.38;4960459;28;20533;-94
2023/04/13 02:15:19;;;;;;;7.78;1.20;;;;;;;6.17;100.00;99425.75;4960237;28;20093;-95
2023/04/13 02:17:44;;;;;;;5.00;1.20;;;;;;;6.17;100.00;99430.94;4961965;28;20039;-95
2023/04/13 02:20:10;;;;;;;3.45;1.10;;;;;;;6.16;100.00;99439.56;4980520;28;20506;-95
2023/04/13 02:22:36;;;;;;;5.22;1.10;;;;;;;6.16;100.00;99449.91;4962512;28;20119;-95
2023/04/13 02:25:01;;;;;;;4.32;1.38;;;;;;;6.16;100.00;99448.16;4960855;28;20161;-95
2023/04/13 02:27:27;;;;;;;5.30;1.80;;;;;;;6.16;100.00;99452.47;4963233;28;20117;-96
2023/04/13 02:29:54;;;;;;;3.50;1.00;;;;;;;6.16;100.00;99466.28;4980234;28;20114;-96
2023/04/13 02:32:19;;;;;;;3.80;1.20;;;;;;;6.16;100.00;99463.69;4979279;28;20041;-96
2023/04/13 02:34:46;;;;;;;6.97;1.40;;;;;;;6.15;100.00;99467.09;4961404;28;20050;-95
2023/04/13 02:37:12;;;;;;;4.93;1.52;;;;;;;6.15;100.00;99464.53;4979969;28;20022;-96
2023/04/13 02:39:37;;;;;;;4.38;1.40;;;;;;;6.16;100.00;99471.44;4976083;28;20031;-96
2023/04/13 02:42:03;;;;;;;4.20;1.40;;;;;;;6.17;100.00;99473.19;4960855;28;20480;-96
2023/04/13 02:44:29;;;;;;;4.90;1.42;;;;;;;6.20;100.00;99482.72;4959899;28;20106;-96
2023/04/13 02:46:54;;;;;;;5.55;1.60;;;;;;;6.20;100.00;99482.72;4960468;28;20031;-96
2023/04/13 02:49:20;;;;;;;3.55;1.80;;;;;;;6.21;100.00;99484.47;4961005;28;20088;-96
2023/04/13 02:51:45;;;;;;;7.07;1.98;;;;;;;6.22;100.00;99489.66;4961907;28;20454;-96
2023/04/13 02:54:11;;;;;;;3.83;1.70;;;;;;;6.24;100.00;99490.59;4962010;28;20041;-96
2023/04/13 02:56:36;;;;;;;4.82;2.03;;;;;;;6.24;100.00;99492.28;4962798;28;20276;-96
2023/04/13 02:59:02;;;;;;;5.78;1.67;;;;;;;6.23;100.00;99509.53;4961763;28;20034;-96
2023/04/13 03:01:28;;;;;;;5.43;1.67;;;;;;;6.23;100.00;99513.84;4961854;28;20022;-96
2023/04/13 03:03:54;;;;;;;5.45;1.88;;;;;;;6.20;100.00;99529.25;4960792;28;20022;-96
2023/04/13 03:06:21;;;;;;;6.45;1.80;;;;;;;6.19;100.00;99525.81;4961548;28;20460;-96
2023/04/13 03:08:47;;;;;;;4.47;1.70;;;;;;;6.17;100.00;99532.69;4962609;28;20027;-95
2023/04/13 03:11:12;;;;;;;4.32;1.30;;;;;;;6.14;100.00;99529.16;4961631;28;20060;-96
2023/04/13 03:13:38;;;;;;;4.40;1.20;;;;;;;6.11;100.00;99542.03;4961506;28;20045;-96
2023/04/13 03:16:04;;;;;;;3.60;1.20;;;;;;;6.08;100.00;99551.47;4978630;28;20037;-95
2023/04/13 03:18:30;;;;;;;2.53;1.00;;;;;;;6.04;99.35;99552.25;4959568;28;20515;-96
2023/04/13 03:20:55;;;;;;;3.75;0.90;;;;;;;6.00;100.00;99553.00;4960614;28;20045;-96
2023/04/13 03:23:21;;;;;;;2.88;1.00;;;;;;;5.99;99.92;99551.25;4959909;28;20480;-96
2023/04/13 03:25:46;;;;;;;3.80;1.25;;;;;;;5.97;100.00;99555.53;4960535;28;20499;-96
2023/04/13 03:28:11;;;;;;;3.45;1.25;;;;;;;5.91;99.72;99565.72;4961303;28;20061;-96
2023/04/13 03:47:25;;;;;;;6.55;2.30;;;;;;;5.87;100.00;99589.75;4978354;28;20030;-96
2023/04/13 03:49:51;;;;;;;6.53;2.30;;;;;;;5.88;100.00;99594.06;4961772;28;20043;-95
2023/04/13 03:52:16;;;;;;;4.72;2.30;;;;;;;5.87;100.00;99593.22;4978630;28;20161;-95
2023/04/13 03:54:41;;;;;;;7.90;2.78;;;;;;;5.89;100.00;99590.66;4963840;28;20022;-96
2023/04/13 03:57:07;;;;;;;8.13;2.97;;;;;;;5.90;100.00;99602.75;4965865;28;20026;-96
2023/04/13 03:59:32;;;;;;;6.93;3.00;;;;;;;5.88;100.00;99596.66;4965474;28;20026;-96
2023/04/13 04:01:57;;;;;;;9.00;3.60;;;;;;;5.89;100.00;99614.81;4964628;28;20487;-96
2023/04/13 04:04:23;;;;;;;7.82;3.50;;;;;;;5.91;100.00;99614.84;4963987;28;20051;-96
2023/04/13 04:06:48;;;;;;;7.05;3.35;;;;;;;5.91;100.00;99620.00;4964597;28;20037;-96
2023/04/13 04:09:13;;;;;;;8.20;3.75;;;;;;;5.93;100.00;99620.91;4964576;28;20540;-96
2023/04/13 04:11:39;;;;;;;8.90;3.80;;;;;;;5.93;100.00;99615.75;4965359;28;20118;-96
2023/04/13 04:14:04;;;;;;;7.25;3.78;;;;;;;5.91;100.00;99620.00;4964424;28;20257;-96
2023/04/13 04:16:29;;;;;;;7.47;3.63;;;;;;;5.90;100.00;99629.47;4965531;28;20030;-96
2023/04/13 04:18:55;;;;;;;7.88;3.60;;;;;;;5.88;100.00;99636.31;4962868;28;20067;-96
2023/04/13 04:21:20;;;;;;;8.43;3.90;;;;;;;5.87;100.00;99642.31;4963139;28;20237;-96
2023/04/13 04:23:46;;;;;;;6.93;3.30;;;;;;;5.87;100.00;99646.63;4964959;28;20496;-96
2023/04/13 04:26:13;;;;;;;6.78;3.20;;;;;;;5.86;100.00;99648.31;4963554;28;20026;-96
2023/04/13 04:28:38;;;;;;;9.55;3.80;;;;;;;5.86;100.00;99652.63;4963578;28;20019;-96
2023/04/13 04:31:10;;;;;;;9.77;3.30;;;;;;;5.83;100.00;99655.16;4982789;28;20451;-96
2023/04/13 04:33:39;;;;;;;8.65;3.55;;;;;;;5.82;100.00;99650.81;4963166;28;20031;-96
2023/04/13 04:36:06;;;;;;;9.02;3.25;;;;;;;5.80;100.00;99655.06;4983106;28;20043;-96
2023/04/13 04:38:31;;;;;;;8.25;3.13;;;;;;;5.77;100.00;99655.00;4964872;28;20121;-96
2023/04/13 04:40:58;;;;;;;8.95;2.88;;;;;;;5.76;100.00;99661.88;4964531;28;20118;-96
2023/04/13 04:43:28;;;;;;;9.70;3.20;;;;;;;5.74;100.00;99667.00;4963264;28;20026;-96
2023/04/13 04:45:56;;;;;;;8.32;3.30;;;;;;;5.72;100.00;99673.88;4980119;28;20127;-96
2023/04/13 04:48:23;;;;;;;8.48;3.55;;;;;;;5.70;100.00;99678.09;4980736;28;20503;-96
2023/04/13 04:50:51;;;;;;;8.30;3.30;;;;;;;5.70;100.00;99685.00;4980558;28;20089;-95
2023/04/13 04:53:16;;;;;;;6.95;3.28;;;;;;;5.66;100.00;99686.66;4981738;28;20023;-96
2023/04/13 04:55:42;;;;;;;8.65;3.45;;;;;;;5.66;100.00;99686.66;4980397;28;20669;-96
2023/04/13 04:58:07;;;;;;;10.45;4.22;;;;;;;5.67;100.00;99690.94;4962520;28;20121;-95
2023/04/13 05:00:33;;;;;;;10.32;3.83;;;;;;;5.66;100.00;99684.06;4962499;28;20045;-95
2023/04/13 05:02:59;;;;;;;10.55;4.03;;;;;;;5.65;100.00;99696.91;4962265;28;20034;-95
2023/04/13 05:05:25;;;;;;;8.68;4.05;;;;;;;5.65;100.00;99695.22;4962393;28;20515;-96
2023/04/13 05:07:50;;;;;;;7.65;4.00;;;;;;;5.66;100.00;99702.16;4977787;28;20062;-95
2023/04/13 05:10:16;;;;;;;10.23;4.03;;;;;;;5.68;100.00;99708.22;4979937;28;20519;-94
2023/04/13 05:12:41;;;;;;;8.50;4.28;;;;;;;5.68;100.00;99700.47;4962875;28;20026;-94
2023/04/13 05:15:07;;;;;;;7.93;4.47;;;;;;;5.68;100.00;99703.03;4963294;28;20030;-95
2023/04/13 05:17:33;;;;;;;10.98;4.60;;;;;;;5.69;100.00;99697.06;4963082;28;20054;-95
2023/04/13 05:19:58;;;;;;;9.27;4.78;;;;;;;5.70;100.00;99703.94;4963087;28;20558;-94
2023/04/13 05:22:24;;;;;;;9.05;4.53;;;;;;;5.71;100.00;99695.38;4962219;28;20050;-94
2023/04/13 05:24:49;;;;;;;9.45;4.78;;;;;;;5.71;100.00;99708.28;4962952;28;20034;-94
2023/04/13 05:27:14;;;;;;;10.60;4.65;;;;;;;5.71;100.00;99713.47;4959663;28;20486;-94
2023/04/13 05:29:40;;;;;;;10.20;4.68;;;;;;;5.71;100.00;99717.75;4962440;28;20072;-95
2023/04/13 05:32:06;;;;;;;10.25;4.82;;;;;;;5.73;100.00;99722.09;4961736;28;20030;-95
2023/04/13 05:34:34;;;;;;;10.63;4.30;;;;;;;5.73;100.00;99719.53;4962881;28;20029;-95
2023/04/13 05:37:00;;;;;;;10.98;4.55;;;;;;;5.77;100.00;99724.81;4960753;28;20026;-95
2023/04/13 05:39:26;;;;;;;9.70;3.90;;;;;;;5.79;100.00;99736.03;4961287;28;20054;-94
2023/04/13 05:41:51;;;;;;;9.50;4.22;;;;;;;5.80;100.00;99725.72;4963486;28;20085;-95
2023/04/13 05:44:17;;;;;;;7.50;3.40;;;;;;;5.82;100.00;99731.84;4960671;28;20019;-95
2023/04/13 05:46:42;;;;;;;9.50;3.45;;;;;;;5.83;100.00;99741.31;4962035;28;20089;-95
2023/04/13 05:49:08;;;;;;;6.80;2.67;;;;;;;5.88;100.00;99747.50;4960706;28;20026;-95
2023/04/13 05:51:34;;;;;;;8.93;3.15;;;;;;;5.89;100.00;99749.25;4961590;28;20404;-94
2023/04/13 05:54:00;;;;;;;8.07;3.00;;;;;;;5.92;100.00;99751.00;4962636;28;20026;-95
2023/04/13 05:56:25;;;;;;;6.78;2.70;;;;;;;5.96;100.00;99754.56;4961278;28;20030;-94
2023/04/13 05:58:52;;;;;;;7.43;2.70;;;;;;;6.01;100.00;99761.63;4979110;28;20540;-95
2023/04/13 06:01:18;;;;;;;5.68;2.30;;;;;;;6.03;100.00;99765.13;4961028;28;20472;-95
2023/04/13 06:03:45;;;;;;;6.30;2.45;;;;;;;6.06;100.00;99774.66;4961285;28;20065;-93
2023/04/13 06:06:11;;;;;;;4.95;2.15;;;;;;;6.09;100.00;99772.16;4960635;28;20034;-95
2023/04/13 06:08:37;;;;;;;6.03;3.22;;;;;;;6.08;100.00;99788.50;4962186;28;20026;-95
2023/04/13 06:11:05;;;;;;;5.05;2.20;;;;;;;6.07;100.00;99785.03;4961747;28;20036;-95
2023/04/13 06:13:30;;;;;;;5.80;2.20;;;;;;;6.08;100.00;99799.72;4979637;28;20399;-95
2023/04/13 06:15:57;;;;;;;6.40;2.40;;;;;;;6.08;100.00;99804.91;4975764;28;20038;-94
2023/04/13 06:18:25;;;;;;;5.35;2.17;;;;;;;6.07;100.00;99813.50;4979484;28;20150;-94
2023/04/13 06:20:50;;;;;;;5.35;2.38;;;;;;;6.09;100.00;99798.88;4961958;28;20085;-95
2023/04/13 06:23:16;;;;;;;6.72;2.72;;;;;;;6.13;100.00;99806.72;4961622;28;21170;-95
2023/04/13 06:25:42;;;;;;;6.93;2.80;;;;;;;6.16;100.00;99793.88;4960674;28;20022;-94
2023/04/13 06:28:07;;;;;;;7.47;3.03;;;;;;;6.19;100.00;99802.56;4961099;28;20061;-95
2023/04/13 06:30:33;;;;;;;8.85;3.45;;;;;;;6.24;100.00;99810.44;4959968;28;20098;-95
2023/04/13 06:32:58;;;;;;;7.18;3.00;;;;;;;6.24;100.00;99810.44;4960229;28;20110;-94
2023/04/13 06:35:23;;;;;;;5.72;2.72;;;;;;;6.30;100.00;99818.38;4962120;28;20447;-95
2023/04/13 06:37:49;;;;;;;6.00;3.13;;;;;;;6.33;100.00;99823.59;4962394;28;20030;-94
2023/04/13 06:40:15;;;;;;;7.47;3.20;;;;;;;6.36;100.00;99834.03;4960279;28;20194;-94
2023/04/13 06:42:41;;;;;;;9.80;3.00;;;;;;;6.36;100.00;99834.03;4960452;28;20491;-95
2023/04/13 06:45:08;;;;;;;8.98;3.03;;;;;;;6.37;100.00;99840.97;4960390;28;20081;-94
2023/04/13 06:47:35;;;;;;;7.35;2.53;;;;;;;6.39;100.00;99844.44;4962589;28;20607;-94
2023/04/13 06:50:04;;;;;;;7.95;3.05;;;;;;;6.42;100.00;99841.94;4973890;28;20113;-94
2023/04/13 06:52:29;;;;;;;6.53;3.10;;;;;;;6.48;100.00;99845.50;4961687;28;20567;-94
2023/04/13 06:54:54;;;;;;;8.35;3.00;;;;;;;6.52;100.00;99843.03;4978842;28;20035;-94
2023/04/13 06:57:19;;;;;;;7.68;3.15;;;;;;;6.57;100.00;99846.59;4960563;28;20037;-95
2023/04/13 06:59:45;;;;;;;8.45;2.85;;;;;;;6.59;100.00;99862.19;4960065;28;20480;-94
2023/04/13 07:02:10;;;;;;;8.45;3.28;;;;;;;6.63;100.00;99853.63;4960295;28;20829;-94
2023/04/13 07:04:36;;;;;;;8.68;3.42;;;;;;;6.64;100.00;99860.56;4959839;28;20023;-95
2023/04/13 07:07:01;;;;;;;8.02;2.80;;;;;;;6.65;100.00;99870.09;4960878;28;20065;-94
2023/04/13 07:09:27;;;;;;;10.98;3.40;;;;;;;6.68;100.00;99862.38;4962320;28;20497;-95
2023/04/13 07:11:52;;;;;;;7.40;2.90;;;;;;;6.72;100.00;99869.38;4961896;28;20057;-95
2023/04/13 07:14:17;;;;;;;9.93;3.22;;;;;;;6.76;100.00;99872.91;4958426;28;20037;-95
2023/04/13 07:16:43;;;;;;;9.98;3.50;;;;;;;6.79;100.00;99878.16;4958750;28;20034;-95
2023/04/13 07:19:08;;;;;;;7.07;3.00;;;;;;;6.80;100.00;99874.72;4960494;28;20046;-95
2023/04/13 07:21:33;;;;;;;6.93;3.10;;;;;;;6.85;100.00;99899.03;4960628;28;20389;-94
2023/04/13 07:23:59;;;;;;;11.13;4.10;;;;;;;6.87;100.00;99894.75;4961505;28;20038;-95
2023/04/13 07:26:25;;;;;;;8.90;2.78;;;;;;;6.88;99.72;99906.88;4958405;28;20038;-95
2023/04/13 07:28:50;;;;;;;7.45;2.80;;;;;;;6.90;100.00;99912.06;4976380;28;20551;-95
2023/04/13 07:31:15;;;;;;;10.15;3.13;;;;;;;6.93;100.00;99905.25;4960725;28;20038;-96
2023/04/13 07:33:41;;;;;;;10.00;3.67;;;;;;;6.95;99.78;99908.75;4978589;28;20023;-94
2023/04/13 07:36:07;;;;;;;7.60;3.20;;;;;;;7.00;99.59;99915.75;4957600;28;20105;-94
2023/04/13 07:38:33;;;;;;;8.82;4.03;;;;;;;7.04;99.86;99912.38;4961043;28;20041;-95
2023/04/13 07:40:59;;;;;;;10.57;3.55;;;;;;;7.07;98.94;99920.25;4976754;28;20034;-94
2023/04/13 07:43:25;;;;;;;11.73;4.05;;;;;;;7.08;99.53;99925.47;4978572;28;20368;-95
2023/04/13 07:45:50;;;;;;;13.70;3.70;;;;;;;7.11;99.04;99925.53;4976345;28;20019;-94
2023/04/13 07:48:16;;;;;;;11.77;4.55;;;;;;;7.14;98.92;99937.69;4960609;28;20018;-95
2023/04/13 07:50:42;;;;;;;13.13;3.80;;;;;;;7.19;99.00;99940.38;4959948;28;20057;-95
2023/04/13 07:53:07;;;;;;;12.93;4.03;;;;;;;7.23;97.74;99950.84;4961695;28;20073;-95
2023/04/13 07:55:33;;;;;;;10.13;3.40;;;;;;;7.23;97.48;99952.56;4977178;28;20446;-95
2023/04/13 07:57:58;;;;;;;11.15;3.88;;;;;;;7.25;97.62;99958.63;4959126;28;20126;-95
2023/04/13 08:00:24;;;;;;;10.52;3.83;;;;;;;7.29;98.18;99955.28;4976217;28;20026;-94
2023/04/13 08:02:50;;;;;;;11.00;3.55;;;;;;;7.34;97.47;99955.38;4956583;28;20026;-94
2023/04/13 08:05:15;;;;;;;10.27;3.72;;;;;;;7.40;98.20;99956.41;4957964;28;20029;-95
2023/04/13 08:07:40;;;;;;;12.98;3.88;;;;;;;7.45;97.56;99957.34;4959633;28;20033;-95
2023/04/13 08:10:07;;;;;;;8.55;3.30;;;;;;;7.51;97.10;99974.75;4959774;28;20045;-95
2023/04/13 08:12:32;;;;;;;11.35;3.78;;;;;;;7.55;95.96;99970.53;4959244;28;21031;-95
2023/04/13 08:14:57;;;;;;;11.90;3.40;;;;;;;7.61;96.38;99974.13;4978995;28;20066;-94
2023/04/13 08:17:23;;;;;;;13.10;3.65;;;;;;;7.71;96.83;99977.78;4958769;28;20616;-94
2023/04/13 08:19:48;;;;;;;11.88;3.85;;;;;;;7.78;94.33;99979.66;4958973;28;20116;-94
2023/04/13 08:22:14;;;;;;;13.00;3.80;;;;;;;7.82;94.79;99981.47;4959480;28;20030;-95
2023/04/13 08:24:40;;;;;;;11.38;3.92;;;;;;;7.89;93.99;99986.78;4961358;28;20042;-94
2023/04/13 08:27:06;;;;;;;9.13;3.58;;;;;;;7.95;94.31;99994.69;4961202;28;20023;-94
2023/04/13 08:29:31;;;;;;;11.45;3.55;;;;;;;8.04;93.99;99999.19;4960057;28;20600;-94
2023/04/13 08:31:57;;;;;;;12.45;3.80;;;;;;;8.11;93.23;100003.66;4959594;28;20035;-94
2023/04/13 08:34:22;;;;;;;13.75;3.55;;;;;;;8.15;90.75;100008.06;4959284;28;20018;-95
2023/04/13 08:36:47;;;;;;;10.80;3.58;;;;;;;8.21;91.20;100010.78;4959591;28;20396;-95
2023/04/13 08:39:13;;;;;;;14.85;3.65;;;;;;;8.31;90.49;100020.50;4959445;28;20019;-95
2023/04/13 08:41:43;;;;;;;9.68;3.72;;;;;;;8.32;91.28;100018.78;4963945;28;20026;-95
2023/04/13 08:44:11;;;;;;;12.88;3.78;;;;;;;8.36;90.88;100030.97;4962410;28;20022;-95
2023/04/13 08:46:36;;;;;;;12.85;3.67;;;;;;;8.37;88.49;100027.53;4978277;28;20022;-95
2023/04/13 08:49:02;;;;;;;13.40;4.00;;;;;;;8.41;87.88;100041.44;4961687;28;20033;-95
2023/04/13 08:51:31;;;;;;;13.68;3.63;;;;;;;8.45;87.21;100040.69;4962377;28;20023;-95
2023/04/13 08:53:58;;;;;;;12.75;3.90;;;;;;;8.48;88.70;100044.22;4947608;28;20471;-95
2023/04/13 08:56:25;;;;;;;15.88;3.58;;;;;;;8.52;87.27;100047.75;4960642;28;20045;-94
2023/04/13 08:58:56;;;;;;;13.48;3.65;;;;;;;8.56;87.39;100057.38;4963549;28;20085;-95
2023/04/13 09:01:21;;;;;;;10.75;3.20;;;;;;;8.58;84.47;100055.66;4962562;28;20023;-95
2023/04/13 09:03:53;;;;;;;13.55;3.30;;;;;;;8.69;84.26;100064.53;4962453;28;20037;-94
2023/04/13 09:06:33;;;;;;;9.10;2.72;;;;;;;8.76;83.71;100062.94;4961028;28;20097;-95
2023/04/13 09:09:04;;;;;;;14.80;3.50;;;;;;;8.84;85.47;100066.53;4960517;28;20037;-95
2023/04/13 09:11:30;;;;;;;10.30;3.30;;;;;;;8.98;84.95;100084.97;4962876;28;20034;-95
2023/04/13 09:13:56;;;;;;;14.50;3.53;;;;;;;9.07;83.34;100076.47;4963333;28;20030;-95
2023/04/13 09:16:21;;;;;;;11.93;3.20;;;;;;;9.19;82.06;100096.56;4961951;28;20041;-94
2023/04/13 09:18:51;;;;;;;10.80;3.25;;;;;;;9.26;80.13;100085.44;4961002;28;20049;-95
2023/04/13 09:21:17;;;;;;;11.18;2.85;;;;;;;9.28;81.38;100085.47;4948350;28;20054;-95
2023/04/13 09:23:53;;;;;;;13.02;3.20;;;;;;;9.28;81.48;100099.31;4962537;28;20030;-95
2023/04/13 09:26:19;;;;;;;10.10;2.88;;;;;;;9.24;81.88;100097.53;4960656;28;20030;-95
2023/04/13 09:28:46;;;;;;;9.02;2.40;;;;;;;9.20;80.38;100091.41;4961450;28;20386;-94
2023/04/13 09:31:12;;;;;;;10.05;2.90;;;;;;;9.11;80.09;100106.84;4962623;28;20034;-94
2023/04/13 09:33:49;;;;;;;14.30;2.88;;;;;;;9.07;80.99;100110.25;4961168;28;20034;-95
2023/04/13 09:36:19;;;;;;;10.35;2.92;;;;;;;9.09;80.00;100115.47;4961955;28;20033;-95
2023/04/13 09:38:54;;;;;;;10.75;2.88;;;;;;;9.13;80.95;100118.13;4978795;28;20042;-95
2023/04/13 09:41:39;;;;;;;10.80;2.50;;;;;;;9.14;79.82;100130.28;4960139;28;20022;-96
2023/04/13 09:44:16;;;;;;;10.10;2.63;;;;;;;9.11;80.80;100132.84;4961788;28;20489;-95
2023/04/13 09:46:43;;;;;;;11.93;2.75;;;;;;;9.03;79.71;100140.47;4963017;28;20396;-94
2023/04/13 09:49:08;;;;;;;9.45;2.90;;;;;;;8.97;80.59;100149.91;4963334;28;20503;-95
2023/04/13 09:51:40;;;;;;;10.95;3.03;;;;;;;8.93;79.58;100143.75;4960453;28;20026;-95
2023/04/13 09:54:06;;;;;;;12.43;3.10;;;;;;;8.92;80.92;100154.13;4961583;28;20148;-95
2023/04/13 09:56:53;;;;;;;10.95;2.67;;;;;;;8.92;79.52;100157.63;4959931;28;20030;-96
2023/04/13 09:59:20;;;;;;;10.95;3.13;;;;;;;8.94;79.73;100160.25;4962419;28;20097;-95
2023/04/13 10:01:46;;;;;;;9.02;3.03;;;;;;;8.93;78.91;100166.28;4963988;28;20118;-96
2023/04/13 10:04:12;;;;;;;13.02;3.15;;;;;;;8.92;79.64;100172.31;4962400;28;20032;-95
2023/04/13 10:06:45;;;;;;;11.35;3.72;;;;;;;8.81;83.69;100175.56;4961205;28;20113;-95
2023/04/13 10:09:11;;;;;;;10.20;3.80;;;;;;;8.66;83.72;100183.03;4961066;28;20046;-95
2023/04/13 10:11:43;;;;;;;12.45;3.42;;;;;;;8.54;85.53;100186.25;4960713;28;20026;-95
2023/04/13 10:14:15;;;;;;;11.05;3.70;;;;;;;8.50;84.89;100195.72;4960334;28;20045;-95
2023/04/13 10:17:06;;;;;;;12.65;4.20;;;;;;;8.51;87.58;100192.25;4961037;28;20040;-94
2023/04/13 10:19:51;;;;;;;10.95;4.03;;;;;;;8.58;86.90;100205.41;4943176;28;20035;-95
2023/04/13 10:22:19;;;;;;;11.13;3.88;;;;;;;8.60;87.03;100201.09;4941888;28;20027;-95
2023/04/13 10:24:45;;;;;;;11.57;3.60;;;;;;;8.66;85.40;100191.72;4943202;28;20027;-95
2023/04/13 10:27:28;;;;;;;17.33;3.88;;;;;;;8.76;85.08;100203.19;4943259;28;20118;-95
2023/04/13 10:29:54;;;;;;;15.80;5.15;;;;;;;8.79;83.24;100197.16;4940953;28;20034;-94
2023/04/13 10:32:24;;;;;;;11.43;4.78;;;;;;;8.75;81.16;100206.63;4942029;28;20057;-95
2023/04/13 10:34:50;;;;;;;12.63;4.82;;;;;;;8.72;82.81;100210.88;4941420;28;20027;-95
2023/04/13 10:37:21;;;;;;;16.23;5.32;;;;;;;8.72;81.80;100224.75;4942068;28;20132;-95
2023/04/13 10:39:47;;;;;;;14.48;4.90;;;;;;;8.73;82.10;100228.22;4941082;28;20086;-95
2023/04/13 10:42:13;;;;;;;11.63;4.32;;;;;;;8.77;79.72;100224.84;4941874;28;20496;-95
2023/04/13 10:44:46;;;;;;;12.27;4.53;;;;;;;8.79;80.65;100229.22;4941725;28;20370;-95
2023/04/13 10:47:14;;;;;;;12.40;4.63;;;;;;;8.93;83.79;100221.69;4940688;28;20088;-94
2023/04/13 10:49:40;;;;;;;14.65;4.00;;;;;;;9.12;82.44;100232.47;4941363;28;20026;-96
2023/04/13 10:52:07;;;;;;;12.25;4.20;;;;;;;9.21;80.53;100238.72;4941308;28;20027;-95
2023/04/13 10:54:37;;;;;;;11.70;4.35;;;;;;;9.25;81.67;100246.59;4941116;28;20042;-95
2023/04/13 10:57:05;;;;;;;;;;;;;;;9.28;82.93;100254.44;4941367;28;20034;-95
2023/04/13 10:59:54;;;;;;;11.13;3.42;;;;;;;9.21;82.00;100254.31;4959565;28;20020;-95
2023/04/13 11:02:20;;;;;;;10.90;3.88;;;;;;;9.12;81.00;100261.06;4940030;28;20066;-95
2023/04/13 11:04:47;;;;;;;13.27;3.28;;;;;;;9.09;81.73;100259.25;4940878;28;20516;-95
2023/04/13 11:07:15;;;;;;;13.65;4.05;;;;;;;9.08;81.01;100262.72;4942122;28;20030;-95
2023/04/13 11:09:46;;;;;;;12.52;3.45;;;;;;;9.14;81.74;100269.75;4957225;28;20030;-95
2023/04/13 11:12:12;;;;;;;12.15;3.20;;;;;;;9.23;82.79;100276.00;4942378;28;20030;-95
2023/04/13 11:14:38;;;;;;;10.32;3.00;;;;;;;9.33;81.26;100268.41;4940710;28;20019;-95
2023/04/13 11:17:11;;;;;;;10.55;3.08;;;;;;;9.44;79.90;100269.47;4941769;28;20038;-95
2023/04/13 11:19:48;;;;;;;10.82;3.10;;;;;;;9.55;79.28;100278.34;4959870;28;20094;-95
2023/04/13 11:22:17;;;;;;;10.80;2.35;;;;;;;9.59;80.33;100279.31;4959466;28;20069;-95
2023/04/13 11:24:44;;;;;;;9.38;2.75;;;;;;;9.57;78.47;100279.28;4960169;28;20057;-95
2023/04/13 11:27:21;;;;;;;11.45;2.47;;;;;;;9.57;80.08;100280.97;4961069;28;20073;-95
2023/04/13 11:29:57;;;;;;;10.35;2.38;;;;;;;9.71;81.20;100278.63;4974965;28;20496;-95
2023/04/13 11:32:22;;;;;;;8.05;2.70;;;;;;;9.92;81.13;100273.81;4960142;28;20069;-95
2023/04/13 11:34:48;;;;;;;9.63;2.63;;;;;;;10.20;80.60;100276.00;4959502;28;20054;-95
2023/04/13 11:37:14;;;;;;;12.65;2.20;;;;;;;10.36;76.81;100279.75;4960680;28;20035;-96
2023/04/13 11:39:42;;;;;;;11.30;2.83;;;;;;;10.42;75.70;100283.31;4965242;28;20089;-96
2023/04/13 11:42:08;;;;;;;10.80;3.35;;;;;;;10.53;74.89;100270.47;4966760;28;20454;-96
2023/04/13 11:44:35;;;;;;;10.52;2.63;;;;;;;10.75;74.88;100275.97;4968058;28;20502;-96
2023/04/13 11:47:02;;;;;;;10.65;3.08;;;;;;;10.90;73.89;100273.53;4964693;28;20098;-96
2023/04/13 11:49:29;;;;;;;9.00;3.10;;;;;;;11.04;70.89;100262.44;4962711;28;20022;-96